sensor_id;sensor_type;location;lat;lon;timestamp;temperature;humidity
40932;DHT22;36257;46.052;12.540;2022-09-23T00:00:03;13.20;87.50
40932;DHT22;36257;46.052;12.540;2022-09-23T00:02:29;13.20;87.60
40932;DHT22;36257;46.052;12.540;2022-09-23T00:04:55;13.20;87.30
40932;DHT22;36257;46.052;12.540;2022-09-23T00:07:20;13.30;87.30
40932;DHT22;36257;46.052;12.540;2022-09-23T00:09:46;13.30;87.30
40932;DHT22;36257;46.052;12.540;2022-09-23T00:12:11;13.30;86.90
40932;DHT22;36257;46.052;12.540;2022-09-23T00:14:38;13.30;87.00
40932;DHT22;36257;46.052;12.540;2022-09-23T00:17:04;13.30;86.90
40932;DHT22;36257;46.052;12.540;2022-09-23T00:19:29;13.40;86.40
40932;DHT22;36257;46.052;12.540;2022-09-23T00:21:55;13.40;86.30
40932;DHT22;36257;46.052;12.540;2022-09-23T00:24:22;13.40;86.30
40932;DHT22;36257;46.052;12.540;2022-09-23T00:26:47;13.40;86.20
40932;DHT22;36257;46.052;12.540;2022-09-23T00:29:13;13.40;86.10
40932;DHT22;36257;46.052;12.540;2022-09-23T00:31:41;13.40;86.40
40932;DHT22;36257;46.052;12.540;2022-09-23T00:34:09;13.40;86.30
40932;DHT22;36257;46.052;12.540;2022-09-23T00:36:35;13.50;85.90
40932;DHT22;36257;46.052;12.540;2022-09-23T00:39:01;13.50;85.70
40932;DHT22;36257;46.052;12.540;2022-09-23T00:41:28;13.60;86.10
40932;DHT22;36257;46.052;12.540;2022-09-23T00:43:56;13.50;86.10
40932;DHT22;36257;46.052;12.540;2022-09-23T00:46:29;13.60;86.10
40932;DHT22;36257;46.052;12.540;2022-09-23T00:49:04;13.70;86.20
40932;DHT22;36257;46.052;12.540;2022-09-23T00:51:33;13.70;85.70
40932;DHT22;36257;46.052;12.540;2022-09-23T00:54:02;13.70;86.20
40932;DHT22;36257;46.052;12.540;2022-09-23T00:56:28;13.80;86.80
40932;DHT22;36257;46.052;12.540;2022-09-23T00:58:55;13.80;86.10
40932;DHT22;36257;46.052;12.540;2022-09-23T01:01:23;13.80;85.80
40932;DHT22;36257;46.052;12.540;2022-09-23T01:03:49;13.70;85.50
40932;DHT22;36257;46.052;12.540;2022-09-23T01:06:16;13.80;85.70
40932;DHT22;36257;46.052;12.540;2022-09-23T01:08:43;13.80;85.80
40932;DHT22;36257;46.052;12.540;2022-09-23T01:16:58;13.90;85.50
40932;DHT22;36257;46.052;12.540;2022-09-23T01:22:16;13.90;85.90
40932;DHT22;36257;46.052;12.540;2022-09-23T01:28:15;13.80;86.40
40932;DHT22;36257;46.052;12.540;2022-09-23T01:33:20;13.80;86.90
40932;DHT22;36257;46.052;12.540;2022-09-23T01:47:16;13.60;87.50
40932;DHT22;36257;46.052;12.540;2022-09-23T01:50:00;13.50;87.90
40932;DHT22;36257;46.052;12.540;2022-09-23T01:52:34;13.50;88.00
40932;DHT22;36257;46.052;12.540;2022-09-23T01:55:15;13.50;87.80
40932;DHT22;36257;46.052;12.540;2022-09-23T02:00:53;13.40;88.30
40932;DHT22;36257;46.052;12.540;2022-09-23T02:03:25;13.40;88.70
40932;DHT22;36257;46.052;12.540;2022-09-23T02:06:05;13.40;88.50
40932;DHT22;36257;46.052;12.540;2022-09-23T02:08:38;13.50;88.00
40932;DHT22;36257;46.052;12.540;2022-09-23T02:11:11;13.50;87.90
40932;DHT22;36257;46.052;12.540;2022-09-23T02:16:13;13.50;87.90
40932;DHT22;36257;46.052;12.540;2022-09-23T02:21:43;13.60;88.00
40932;DHT22;36257;46.052;12.540;2022-09-23T02:24:21;13.70;87.90
40932;DHT22;36257;46.052;12.540;2022-09-23T02:29:45;13.70;86.80
40932;DHT22;36257;46.052;12.540;2022-09-23T02:32:17;13.70;86.20
40932;DHT22;36257;46.052;12.540;2022-09-23T02:37:45;13.70;86.90
40932;DHT22;36257;46.052;12.540;2022-09-23T02:40:37;13.80;86.70
40932;DHT22;36257;46.052;12.540;2022-09-23T02:43:30;13.80;86.80
40932;DHT22;36257;46.052;12.540;2022-09-23T02:46:01;13.80;87.30
40932;DHT22;36257;46.052;12.540;2022-09-23T02:48:37;13.80;87.40
40932;DHT22;36257;46.052;12.540;2022-09-23T02:51:06;13.80;87.60
40932;DHT22;36257;46.052;12.540;2022-09-23T02:53:32;13.80;87.60
40932;DHT22;36257;46.052;12.540;2022-09-23T02:56:00;13.80;87.80
40932;DHT22;36257;46.052;12.540;2022-09-23T02:58:26;13.70;88.00
40932;DHT22;36257;46.052;12.540;2022-09-23T03:01:06;13.70;87.90
40932;DHT22;36257;46.052;12.540;2022-09-23T03:04:24;13.60;88.00
40932;DHT22;36257;46.052;12.540;2022-09-23T03:06:57;13.60;88.40
40932;DHT22;36257;46.052;12.540;2022-09-23T03:12:13;13.60;89.10
40932;DHT22;36257;46.052;12.540;2022-09-23T03:20:13;13.50;88.70
40932;DHT22;36257;46.052;12.540;2022-09-23T03:22:47;13.50;89.00
40932;DHT22;36257;46.052;12.540;2022-09-23T03:25:17;13.50;88.90
40932;DHT22;36257;46.052;12.540;2022-09-23T03:27:44;13.50;88.80
40932;DHT22;36257;46.052;12.540;2022-09-23T03:30:10;13.50;89.30
40932;DHT22;36257;46.052;12.540;2022-09-23T03:32:39;13.50;89.20
40932;DHT22;36257;46.052;12.540;2022-09-23T03:35:06;13.60;89.20
40932;DHT22;36257;46.052;12.540;2022-09-23T03:37:37;13.60;88.50
40932;DHT22;36257;46.052;12.540;2022-09-23T03:40:28;13.60;88.60
40932;DHT22;36257;46.052;12.540;2022-09-23T03:42:56;13.60;88.40
40932;DHT22;36257;46.052;12.540;2022-09-23T03:45:25;13.50;88.50
40932;DHT22;36257;46.052;12.540;2022-09-23T03:47:52;13.60;88.30
40932;DHT22;36257;46.052;12.540;2022-09-23T03:50:17;13.60;88.70
40932;DHT22;36257;46.052;12.540;2022-09-23T03:52:43;13.60;88.60
40932;DHT22;36257;46.052;12.540;2022-09-23T03:55:10;13.50;88.90
40932;DHT22;36257;46.052;12.540;2022-09-23T03:57:36;13.50;89.10
40932;DHT22;36257;46.052;12.540;2022-09-23T04:00:06;13.50;89.10
40932;DHT22;36257;46.052;12.540;2022-09-23T04:02:32;13.50;89.30
40932;DHT22;36257;46.052;12.540;2022-09-23T04:04:58;13.50;89.60
40932;DHT22;36257;46.052;12.540;2022-09-23T04:07:23;13.60;89.40
40932;DHT22;36257;46.052;12.540;2022-09-23T04:09:50;13.60;89.10
40932;DHT22;36257;46.052;12.540;2022-09-23T04:12:16;13.60;87.80
40932;DHT22;36257;46.052;12.540;2022-09-23T04:14:42;13.60;87.60
40932;DHT22;36257;46.052;12.540;2022-09-23T04:17:08;13.50;87.10
40932;DHT22;36257;46.052;12.540;2022-09-23T04:19:34;13.50;87.10
40932;DHT22;36257;46.052;12.540;2022-09-23T04:22:00;13.50;87.10
40932;DHT22;36257;46.052;12.540;2022-09-23T04:24:25;13.40;87.90
40932;DHT22;36257;46.052;12.540;2022-09-23T04:26:52;13.40;88.20
40932;DHT22;36257;46.052;12.540;2022-09-23T04:29:19;13.30;88.30
40932;DHT22;36257;46.052;12.540;2022-09-23T04:31:45;13.30;88.10
40932;DHT22;36257;46.052;12.540;2022-09-23T04:34:10;13.30;87.70
40932;DHT22;36257;46.052;12.540;2022-09-23T04:36:37;13.20;87.70
40932;DHT22;36257;46.052;12.540;2022-09-23T04:39:03;13.20;88.00
40932;DHT22;36257;46.052;12.540;2022-09-23T04:41:28;13.10;88.50
40932;DHT22;36257;46.052;12.540;2022-09-23T04:43:54;13.10;88.80
40932;DHT22;36257;46.052;12.540;2022-09-23T04:46:22;13.10;88.90
40932;DHT22;36257;46.052;12.540;2022-09-23T04:48:47;13.10;88.40
40932;DHT22;36257;46.052;12.540;2022-09-23T04:51:19;13.10;88.00
40932;DHT22;36257;46.052;12.540;2022-09-23T04:53:46;13.00;87.40
40932;DHT22;36257;46.052;12.540;2022-09-23T04:56:15;13.00;87.10
40932;DHT22;36257;46.052;12.540;2022-09-23T04:58:42;12.90;87.30
40932;DHT22;36257;46.052;12.540;2022-09-23T05:01:22;12.80;87.00
40932;DHT22;36257;46.052;12.540;2022-09-23T05:03:56;12.80;87.00
40932;DHT22;36257;46.052;12.540;2022-09-23T05:06:23;12.80;86.90
40932;DHT22;36257;46.052;12.540;2022-09-23T05:08:52;12.80;86.60
40932;DHT22;36257;46.052;12.540;2022-09-23T05:11:19;12.70;86.30
40932;DHT22;36257;46.052;12.540;2022-09-23T05:13:49;12.70;85.80
40932;DHT22;36257;46.052;12.540;2022-09-23T05:16:15;12.70;86.00
40932;DHT22;36257;46.052;12.540;2022-09-23T05:18:42;12.70;86.10
40932;DHT22;36257;46.052;12.540;2022-09-23T05:21:10;12.70;86.10
40932;DHT22;36257;46.052;12.540;2022-09-23T05:23:36;12.60;86.50
40932;DHT22;36257;46.052;12.540;2022-09-23T05:26:07;12.60;86.10
40932;DHT22;36257;46.052;12.540;2022-09-23T05:28:33;12.60;86.20
40932;DHT22;36257;46.052;12.540;2022-09-23T05:31:09;12.60;86.30
40932;DHT22;36257;46.052;12.540;2022-09-23T05:33:41;12.60;86.90
40932;DHT22;36257;46.052;12.540;2022-09-23T05:36:07;12.60;86.50
40932;DHT22;36257;46.052;12.540;2022-09-23T05:38:33;12.60;86.10
40932;DHT22;36257;46.052;12.540;2022-09-23T05:41:07;12.60;85.90
40932;DHT22;36257;46.052;12.540;2022-09-23T05:43:33;12.70;86.20
40932;DHT22;36257;46.052;12.540;2022-09-23T05:46:14;12.70;85.90
40932;DHT22;36257;46.052;12.540;2022-09-23T05:48:41;12.80;85.50
40932;DHT22;36257;46.052;12.540;2022-09-23T05:51:09;12.90;85.30
40932;DHT22;36257;46.052;12.540;2022-09-23T05:53:39;13.00;84.70
40932;DHT22;36257;46.052;12.540;2022-09-23T05:56:05;13.10;84.70
40932;DHT22;36257;46.052;12.540;2022-09-23T05:58:31;13.30;84.80
40932;DHT22;36257;46.052;12.540;2022-09-23T06:00:57;13.40;85.20
40932;DHT22;36257;46.052;12.540;2022-09-23T06:03:24;13.50;85.20
40932;DHT22;36257;46.052;12.540;2022-09-23T06:05:53;13.60;84.60
40932;DHT22;36257;46.052;12.540;2022-09-23T06:08:19;13.70;84.60
40932;DHT22;36257;46.052;12.540;2022-09-23T06:10:46;13.80;85.30
40932;DHT22;36257;46.052;12.540;2022-09-23T06:13:12;14.00;85.60
40932;DHT22;36257;46.052;12.540;2022-09-23T06:15:38;14.10;84.20
40932;DHT22;36257;46.052;12.540;2022-09-23T06:18:05;14.30;83.80
40932;DHT22;36257;46.052;12.540;2022-09-23T06:20:32;14.40;81.90
40932;DHT22;36257;46.052;12.540;2022-09-23T06:23:03;14.60;80.70
40932;DHT22;36257;46.052;12.540;2022-09-23T06:25:31;14.80;79.60
40932;DHT22;36257;46.052;12.540;2022-09-23T06:27:56;14.90;79.40
40932;DHT22;36257;46.052;12.540;2022-09-23T06:30:24;15.10;78.20
40932;DHT22;36257;46.052;12.540;2022-09-23T06:32:52;15.30;76.70
40932;DHT22;36257;46.052;12.540;2022-09-23T06:35:19;15.50;76.30
40932;DHT22;36257;46.052;12.540;2022-09-23T06:37:45;15.70;76.50
40932;DHT22;36257;46.052;12.540;2022-09-23T06:40:11;16.00;74.30
40932;DHT22;36257;46.052;12.540;2022-09-23T06:42:41;16.30;71.60
40932;DHT22;36257;46.052;12.540;2022-09-23T06:45:08;16.40;71.20
40932;DHT22;36257;46.052;12.540;2022-09-23T06:47:37;16.60;72.50
40932;DHT22;36257;46.052;12.540;2022-09-23T06:50:04;16.80;70.90
40932;DHT22;36257;46.052;12.540;2022-09-23T06:52:29;16.90;71.20
40932;DHT22;36257;46.052;12.540;2022-09-23T06:54:55;17.10;71.20
40932;DHT22;36257;46.052;12.540;2022-09-23T06:57:21;17.30;69.20
40932;DHT22;36257;46.052;12.540;2022-09-23T06:59:47;17.40;67.40
40932;DHT22;36257;46.052;12.540;2022-09-23T07:02:13;17.40;68.00
40932;DHT22;36257;46.052;12.540;2022-09-23T07:04:38;17.50;68.80
40932;DHT22;36257;46.052;12.540;2022-09-23T07:07:04;17.60;67.80
40932;DHT22;36257;46.052;12.540;2022-09-23T07:09:30;17.70;67.60
40932;DHT22;36257;46.052;12.540;2022-09-23T07:11:55;17.90;67.10
40932;DHT22;36257;46.052;12.540;2022-09-23T07:14:21;18.00;67.00
40932;DHT22;36257;46.052;12.540;2022-09-23T07:16:50;18.10;66.30
40932;DHT22;36257;46.052;12.540;2022-09-23T07:19:17;18.30;67.80
40932;DHT22;36257;46.052;12.540;2022-09-23T07:21:44;18.50;68.40
40932;DHT22;36257;46.052;12.540;2022-09-23T07:24:09;18.70;65.80
40932;DHT22;36257;46.052;12.540;2022-09-23T07:26:35;18.90;67.30
40932;DHT22;36257;46.052;12.540;2022-09-23T07:29:01;19.10;65.20
40932;DHT22;36257;46.052;12.540;2022-09-23T07:31:32;19.20;63.60
40932;DHT22;36257;46.052;12.540;2022-09-23T07:33:58;19.40;64.60
40932;DHT22;36257;46.052;12.540;2022-09-23T07:36:26;19.60;65.10
40932;DHT22;36257;46.052;12.540;2022-09-23T07:38:53;19.70;63.10
40932;DHT22;36257;46.052;12.540;2022-09-23T07:41:25;19.80;61.70
40932;DHT22;36257;46.052;12.540;2022-09-23T07:43:53;19.80;63.60
40932;DHT22;36257;46.052;12.540;2022-09-23T07:46:21;19.90;63.40
40932;DHT22;36257;46.052;12.540;2022-09-23T07:48:46;20.00;64.00
40932;DHT22;36257;46.052;12.540;2022-09-23T07:51:17;20.10;63.70
40932;DHT22;36257;46.052;12.540;2022-09-23T07:53:48;20.20;63.00
40932;DHT22;36257;46.052;12.540;2022-09-23T07:56:14;20.40;64.00
40932;DHT22;36257;46.052;12.540;2022-09-23T07:58:40;20.50;63.00
40932;DHT22;36257;46.052;12.540;2022-09-23T08:01:09;20.60;61.50
40932;DHT22;36257;46.052;12.540;2022-09-23T08:03:36;20.70;62.00
40932;DHT22;36257;46.052;12.540;2022-09-23T08:06:07;20.70;58.20
40932;DHT22;36257;46.052;12.540;2022-09-23T08:08:33;20.70;60.70
40932;DHT22;36257;46.052;12.540;2022-09-23T08:11:02;20.80;63.20
40932;DHT22;36257;46.052;12.540;2022-09-23T08:13:28;21.10;62.00
40932;DHT22;36257;46.052;12.540;2022-09-23T08:15:53;21.30;59.70
40932;DHT22;36257;46.052;12.540;2022-09-23T08:18:19;21.20;59.20
40932;DHT22;36257;46.052;12.540;2022-09-23T08:20:44;21.20;60.90
40932;DHT22;36257;46.052;12.540;2022-09-23T08:23:11;21.40;60.90
40932;DHT22;36257;46.052;12.540;2022-09-23T08:25:41;21.60;60.70
40932;DHT22;36257;46.052;12.540;2022-09-23T08:28:07;21.80;60.90
40932;DHT22;36257;46.052;12.540;2022-09-23T08:30:34;21.90;59.40
40932;DHT22;36257;46.052;12.540;2022-09-23T08:32:59;21.90;59.30
40932;DHT22;36257;46.052;12.540;2022-09-23T08:35:25;21.80;60.00
40932;DHT22;36257;46.052;12.540;2022-09-23T08:37:50;22.00;60.70
40932;DHT22;36257;46.052;12.540;2022-09-23T08:40:17;22.20;59.50
40932;DHT22;36257;46.052;12.540;2022-09-23T08:42:44;22.30;60.30
40932;DHT22;36257;46.052;12.540;2022-09-23T08:45:24;22.40;60.80
40932;DHT22;36257;46.052;12.540;2022-09-23T08:47:57;22.70;60.90
40932;DHT22;36257;46.052;12.540;2022-09-23T08:50:35;23.10;57.90
40932;DHT22;36257;46.052;12.540;2022-09-23T08:53:24;23.10;58.10
40932;DHT22;36257;46.052;12.540;2022-09-23T08:55:53;23.10;57.10
40932;DHT22;36257;46.052;12.540;2022-09-23T09:03:54;23.20;57.30
40932;DHT22;36257;46.052;12.540;2022-09-23T09:06:41;23.30;58.30
40932;DHT22;36257;46.052;12.540;2022-09-23T09:09:29;23.40;57.90
40932;DHT22;36257;46.052;12.540;2022-09-23T09:12:19;23.70;58.10
40932;DHT22;36257;46.052;12.540;2022-09-23T09:17:18;24.00;56.00
40932;DHT22;36257;46.052;12.540;2022-09-23T09:20:00;24.10;55.90
40932;DHT22;36257;46.052;12.540;2022-09-23T09:22:41;24.20;56.30
40932;DHT22;36257;46.052;12.540;2022-09-23T09:27:48;24.10;56.30
40932;DHT22;36257;46.052;12.540;2022-09-23T09:30:15;23.90;56.00
40932;DHT22;36257;46.052;12.540;2022-09-23T09:38:03;24.20;55.90
40932;DHT22;36257;46.052;12.540;2022-09-23T09:40:30;24.10;56.30
40932;DHT22;36257;46.052;12.540;2022-09-23T09:42:56;24.20;57.70
40932;DHT22;36257;46.052;12.540;2022-09-23T09:48:14;24.30;55.60
40932;DHT22;36257;46.052;12.540;2022-09-23T09:50:49;24.30;56.60
40932;DHT22;36257;46.052;12.540;2022-09-23T09:56:03;24.10;55.00
40932;DHT22;36257;46.052;12.540;2022-09-23T09:58:48;23.60;55.40
40932;DHT22;36257;46.052;12.540;2022-09-23T10:01:24;23.10;56.70
40932;DHT22;36257;46.052;12.540;2022-09-23T10:03:53;23.20;58.80
40932;DHT22;36257;46.052;12.540;2022-09-23T10:06:22;23.20;57.80
40932;DHT22;36257;46.052;12.540;2022-09-23T10:09:16;23.30;57.00
40932;DHT22;36257;46.052;12.540;2022-09-23T10:12:14;23.30;57.40
40932;DHT22;36257;46.052;12.540;2022-09-23T10:14:43;23.60;56.70
40932;DHT22;36257;46.052;12.540;2022-09-23T10:19:55;24.20;55.90
40932;DHT22;36257;46.052;12.540;2022-09-23T10:22:28;24.30;56.40
40932;DHT22;36257;46.052;12.540;2022-09-23T10:25:02;24.00;55.90
40932;DHT22;36257;46.052;12.540;2022-09-23T10:27:32;23.80;56.80
40932;DHT22;36257;46.052;12.540;2022-09-23T10:30:04;23.80;56.30
40932;DHT22;36257;46.052;12.540;2022-09-23T10:32:35;24.10;58.40
40932;DHT22;36257;46.052;12.540;2022-09-23T10:37:36;24.70;54.80
40932;DHT22;36257;46.052;12.540;2022-09-23T10:40:33;25.00;57.40
40932;DHT22;36257;46.052;12.540;2022-09-23T10:46:23;25.70;52.00
40932;DHT22;36257;46.052;12.540;2022-09-23T11:06:43;24.50;54.30
40932;DHT22;36257;46.052;12.540;2022-09-23T11:12:43;25.20;53.20
40932;DHT22;36257;46.052;12.540;2022-09-23T11:16:07;25.70;55.50
40932;DHT22;36257;46.052;12.540;2022-09-23T11:18:37;25.90;55.10
40932;DHT22;36257;46.052;12.540;2022-09-23T11:37:23;25.20;55.00
40932;DHT22;36257;46.052;12.540;2022-09-23T11:40:23;25.60;52.30
40932;DHT22;36257;46.052;12.540;2022-09-23T11:45:48;24.90;54.80
40932;DHT22;36257;46.052;12.540;2022-09-23T11:51:13;23.80;56.40
40932;DHT22;36257;46.052;12.540;2022-09-23T11:53:58;24.00;57.80
40932;DHT22;36257;46.052;12.540;2022-09-23T11:57:14;23.80;56.70
40932;DHT22;36257;46.052;12.540;2022-09-23T12:02:29;23.80;57.40
40932;DHT22;36257;46.052;12.540;2022-09-23T12:05:15;24.40;54.70
40932;DHT22;36257;46.052;12.540;2022-09-23T12:10:18;25.40;53.80
40932;DHT22;36257;46.052;12.540;2022-09-23T12:13:03;25.10;55.40
40932;DHT22;36257;46.052;12.540;2022-09-23T12:23:45;25.00;55.70
40932;DHT22;36257;46.052;12.540;2022-09-23T12:26:14;25.30;55.40
40932;DHT22;36257;46.052;12.540;2022-09-23T12:28:44;25.40;57.60
40932;DHT22;36257;46.052;12.540;2022-09-23T12:31:13;25.30;56.00
40932;DHT22;36257;46.052;12.540;2022-09-23T12:33:51;25.00;55.00
40932;DHT22;36257;46.052;12.540;2022-09-23T12:36:33;24.60;56.00
40932;DHT22;36257;46.052;12.540;2022-09-23T12:39:39;24.20;56.60
40932;DHT22;36257;46.052;12.540;2022-09-23T12:42:05;24.30;59.10
40932;DHT22;36257;46.052;12.540;2022-09-23T12:44:39;24.40;55.40
40932;DHT22;36257;46.052;12.540;2022-09-23T12:49:59;25.00;55.50
40932;DHT22;36257;46.052;12.540;2022-09-23T12:52:30;24.70;54.70
40932;DHT22;36257;46.052;12.540;2022-09-23T12:57:49;24.40;58.20
40932;DHT22;36257;46.052;12.540;2022-09-23T13:00:24;24.20;56.30
40932;DHT22;36257;46.052;12.540;2022-09-23T13:02:58;24.10;57.30
40932;DHT22;36257;46.052;12.540;2022-09-23T13:05:47;23.90;57.90
40932;DHT22;36257;46.052;12.540;2022-09-23T13:08:36;23.60;56.10
40932;DHT22;36257;46.052;12.540;2022-09-23T13:11:05;23.60;58.60
40932;DHT22;36257;46.052;12.540;2022-09-23T13:13:35;23.50;58.60
40932;DHT22;36257;46.052;12.540;2022-09-23T13:16:12;23.30;59.40
40932;DHT22;36257;46.052;12.540;2022-09-23T13:18:58;23.00;58.00
40932;DHT22;36257;46.052;12.540;2022-09-23T13:26:38;22.90;57.20
40932;DHT22;36257;46.052;12.540;2022-09-23T13:29:04;22.70;60.40
40932;DHT22;36257;46.052;12.540;2022-09-23T13:31:31;22.90;60.70
40932;DHT22;36257;46.052;12.540;2022-09-23T13:34:03;23.00;60.70
40932;DHT22;36257;46.052;12.540;2022-09-23T13:36:43;23.00;58.80
40932;DHT22;36257;46.052;12.540;2022-09-23T13:39:25;22.90;58.20
40932;DHT22;36257;46.052;12.540;2022-09-23T13:41:54;22.60;59.40
40932;DHT22;36257;46.052;12.540;2022-09-23T13:44:23;22.50;60.50
40932;DHT22;36257;46.052;12.540;2022-09-23T13:46:52;22.30;60.20
40932;DHT22;36257;46.052;12.540;2022-09-23T13:49:22;22.30;59.90
40932;DHT22;36257;46.052;12.540;2022-09-23T13:51:52;22.20;60.70
40932;DHT22;36257;46.052;12.540;2022-09-23T13:54:48;22.20;61.40
40932;DHT22;36257;46.052;12.540;2022-09-23T13:57:33;22.10;61.20
40932;DHT22;36257;46.052;12.540;2022-09-23T14:00:19;22.00;60.10
40932;DHT22;36257;46.052;12.540;2022-09-23T14:02:45;22.00;62.20
40932;DHT22;36257;46.052;12.540;2022-09-23T14:05:16;22.00;62.00
40932;DHT22;36257;46.052;12.540;2022-09-23T14:07:46;21.90;61.20
40932;DHT22;36257;46.052;12.540;2022-09-23T14:10:17;22.00;63.00
40932;DHT22;36257;46.052;12.540;2022-09-23T14:12:43;22.00;62.20
40932;DHT22;36257;46.052;12.540;2022-09-23T14:15:16;22.00;61.20
40932;DHT22;36257;46.052;12.540;2022-09-23T14:17:53;22.00;60.90
40932;DHT22;36257;46.052;12.540;2022-09-23T14:20:20;22.00;62.20
40932;DHT22;36257;46.052;12.540;2022-09-23T14:22:46;22.10;59.50
40932;DHT22;36257;46.052;12.540;2022-09-23T14:25:13;22.10;62.40
40932;DHT22;36257;46.052;12.540;2022-09-23T14:27:43;22.00;61.00
40932;DHT22;36257;46.052;12.540;2022-09-23T14:30:15;22.00;60.50
40932;DHT22;36257;46.052;12.540;2022-09-23T14:32:42;21.90;61.00
40932;DHT22;36257;46.052;12.540;2022-09-23T14:35:22;21.80;62.00
40932;DHT22;36257;46.052;12.540;2022-09-23T14:37:55;21.80;61.50
40932;DHT22;36257;46.052;12.540;2022-09-23T14:40:54;21.80;63.90
40932;DHT22;36257;46.052;12.540;2022-09-23T14:43:58;21.70;62.30
40932;DHT22;36257;46.052;12.540;2022-09-23T14:46:34;21.60;63.50
40932;DHT22;36257;46.052;12.540;2022-09-23T14:51:57;21.50;62.60
40932;DHT22;36257;46.052;12.540;2022-09-23T14:57:00;21.40;62.90
40932;DHT22;36257;46.052;12.540;2022-09-23T14:59:35;21.40;63.00
40932;DHT22;36257;46.052;12.540;2022-09-23T15:02:23;21.40;63.60
40932;DHT22;36257;46.052;12.540;2022-09-23T15:04:48;21.40;63.00
40932;DHT22;36257;46.052;12.540;2022-09-23T15:07:18;21.40;64.00
40932;DHT22;36257;46.052;12.540;2022-09-23T15:09:45;21.30;62.40
40932;DHT22;36257;46.052;12.540;2022-09-23T15:12:13;21.10;63.60
40932;DHT22;36257;46.052;12.540;2022-09-23T15:14:44;21.10;63.30
40932;DHT22;36257;46.052;12.540;2022-09-23T15:20:01;21.10;63.50
40932;DHT22;36257;46.052;12.540;2022-09-23T15:22:27;21.10;64.20
40932;DHT22;36257;46.052;12.540;2022-09-23T15:24:54;21.10;64.50
40932;DHT22;36257;46.052;12.540;2022-09-23T15:27:33;21.20;63.60
40932;DHT22;36257;46.052;12.540;2022-09-23T15:30:16;21.00;62.80
40932;DHT22;36257;46.052;12.540;2022-09-23T15:32:46;21.00;65.20
40932;DHT22;36257;46.052;12.540;2022-09-23T15:35:17;21.00;64.10
40932;DHT22;36257;46.052;12.540;2022-09-23T15:37:44;21.00;64.70
40932;DHT22;36257;46.052;12.540;2022-09-23T15:42:58;20.80;64.60
40932;DHT22;36257;46.052;12.540;2022-09-23T15:45:34;20.80;63.80
40932;DHT22;36257;46.052;12.540;2022-09-23T15:48:06;20.60;65.40
40932;DHT22;36257;46.052;12.540;2022-09-23T15:50:34;20.60;66.60
40932;DHT22;36257;46.052;12.540;2022-09-23T15:53:00;20.50;65.10
40932;DHT22;36257;46.052;12.540;2022-09-23T15:55:25;20.50;65.50
40932;DHT22;36257;46.052;12.540;2022-09-23T15:57:51;20.50;66.70
40932;DHT22;36257;46.052;12.540;2022-09-23T16:00:17;20.50;66.10
40932;DHT22;36257;46.052;12.540;2022-09-23T16:02:45;20.50;64.30
40932;DHT22;36257;46.052;12.540;2022-09-23T16:05:18;20.40;64.30
40932;DHT22;36257;46.052;12.540;2022-09-23T16:07:46;20.30;65.50
40932;DHT22;36257;46.052;12.540;2022-09-23T16:10:13;20.30;64.60
40932;DHT22;36257;46.052;12.540;2022-09-23T16:12:39;20.30;65.70
40932;DHT22;36257;46.052;12.540;2022-09-23T16:15:13;20.30;65.90
40932;DHT22;36257;46.052;12.540;2022-09-23T16:17:40;20.40;66.20
40932;DHT22;36257;46.052;12.540;2022-09-23T16:20:08;20.30;65.40
40932;DHT22;36257;46.052;12.540;2022-09-23T16:22:33;20.30;66.90
40932;DHT22;36257;46.052;12.540;2022-09-23T16:24:59;20.20;66.20
40932;DHT22;36257;46.052;12.540;2022-09-23T16:27:25;20.20;66.50
40932;DHT22;36257;46.052;12.540;2022-09-23T16:29:50;20.20;66.30
40932;DHT22;36257;46.052;12.540;2022-09-23T16:32:16;20.10;66.90
40932;DHT22;36257;46.052;12.540;2022-09-23T16:34:41;20.10;67.70
40932;DHT22;36257;46.052;12.540;2022-09-23T16:37:11;20.10;67.10
40932;DHT22;36257;46.052;12.540;2022-09-23T16:39:39;20.10;66.10
40932;DHT22;36257;46.052;12.540;2022-09-23T16:42:04;20.00;66.80
40932;DHT22;36257;46.052;12.540;2022-09-23T16:44:30;20.00;67.70
40932;DHT22;36257;46.052;12.540;2022-09-23T16:46:57;19.90;67.60
40932;DHT22;36257;46.052;12.540;2022-09-23T16:49:23;19.90;69.10
40932;DHT22;36257;46.052;12.540;2022-09-23T16:51:49;19.80;67.80
40932;DHT22;36257;46.052;12.540;2022-09-23T16:54:14;19.80;67.40
40932;DHT22;36257;46.052;12.540;2022-09-23T16:56:42;19.80;67.90
40932;DHT22;36257;46.052;12.540;2022-09-23T16:59:14;19.80;68.00
40932;DHT22;36257;46.052;12.540;2022-09-23T17:01:40;19.80;67.30
40932;DHT22;36257;46.052;12.540;2022-09-23T17:04:25;19.90;67.80
40932;DHT22;36257;46.052;12.540;2022-09-23T17:06:52;19.80;70.70
40932;DHT22;36257;46.052;12.540;2022-09-23T17:09:28;19.70;72.50
40932;DHT22;36257;46.052;12.540;2022-09-23T17:14:28;19.50;73.20
40932;DHT22;36257;46.052;12.540;2022-09-23T17:16:56;19.50;73.40
40932;DHT22;36257;46.052;12.540;2022-09-23T17:19:23;19.50;72.90
40932;DHT22;36257;46.052;12.540;2022-09-23T17:21:48;19.40;73.10
40932;DHT22;36257;46.052;12.540;2022-09-23T17:24:14;19.30;73.00
40932;DHT22;36257;46.052;12.540;2022-09-23T17:26:40;19.30;72.90
40932;DHT22;36257;46.052;12.540;2022-09-23T17:29:05;19.30;73.00
40932;DHT22;36257;46.052;12.540;2022-09-23T17:31:32;19.20;72.50
40932;DHT22;36257;46.052;12.540;2022-09-23T17:33:57;19.00;73.20
40932;DHT22;36257;46.052;12.540;2022-09-23T17:36:23;18.90;73.70
40932;DHT22;36257;46.052;12.540;2022-09-23T17:38:49;18.80;74.10
40932;DHT22;36257;46.052;12.540;2022-09-23T17:41:18;18.70;73.70
40932;DHT22;36257;46.052;12.540;2022-09-23T17:43:44;18.60;74.10
40932;DHT22;36257;46.052;12.540;2022-09-23T17:46:13;18.60;74.10
40932;DHT22;36257;46.052;12.540;2022-09-23T17:48:42;18.50;74.30
40932;DHT22;36257;46.052;12.540;2022-09-23T17:51:16;18.50;74.30
40932;DHT22;36257;46.052;12.540;2022-09-23T17:53:45;18.60;74.60
40932;DHT22;36257;46.052;12.540;2022-09-23T17:56:15;18.50;74.40
40932;DHT22;36257;46.052;12.540;2022-09-23T17:58:41;18.50;75.00
40932;DHT22;36257;46.052;12.540;2022-09-23T18:01:09;18.50;75.20
40932;DHT22;36257;46.052;12.540;2022-09-23T18:03:36;18.50;75.90
40932;DHT22;36257;46.052;12.540;2022-09-23T18:06:16;18.50;76.50
40932;DHT22;36257;46.052;12.540;2022-09-23T18:08:44;18.60;76.60
40932;DHT22;36257;46.052;12.540;2022-09-23T18:11:21;18.50;76.80
40932;DHT22;36257;46.052;12.540;2022-09-23T18:13:53;18.50;76.80
40932;DHT22;36257;46.052;12.540;2022-09-23T18:16:20;18.40;74.30